sensor_id;sensor_type;location;lat;lon;timestamp;temperature;humidity
21495;DHT22;10909;53.590;10.054;2023-05-27T00:01:55;14.90;54.60
21495;DHT22;10909;53.590;10.054;2023-05-27T00:04:24;14.80;54.70
21495;DHT22;10909;53.590;10.054;2023-05-27T00:06:52;14.80;54.80
21495;DHT22;10909;53.590;10.054;2023-05-27T00:09:18;14.80;54.90
21495;DHT22;10909;53.590;10.054;2023-05-27T00:11:47;14.70;55.60
21495;DHT22;10909;53.590;10.054;2023-05-27T00:14:16;14.70;55.20
21495;DHT22;10909;53.590;10.054;2023-05-27T00:16:47;14.70;55.20
21495;DHT22;10909;53.590;10.054;2023-05-27T00:19:15;14.70;55.10
21495;DHT22;10909;53.590;10.054;2023-05-27T00:21:42;14.70;55.20
21495;DHT22;10909;53.590;10.054;2023-05-27T00:24:08;14.70;55.30
21495;DHT22;10909;53.590;10.054;2023-05-27T00:26:35;14.70;55.30
21495;DHT22;10909;53.590;10.054;2023-05-27T00:29:02;14.60;55.20
21495;DHT22;10909;53.590;10.054;2023-05-27T00:31:28;14.60;55.20
21495;DHT22;10909;53.590;10.054;2023-05-27T00:33:53;14.60;55.40
21495;DHT22;10909;53.590;10.054;2023-05-27T00:36:19;14.60;55.40
21495;DHT22;10909;53.590;10.054;2023-05-27T00:38:45;14.50;55.50
21495;DHT22;10909;53.590;10.054;2023-05-27T00:41:11;14.50;55.60
21495;DHT22;10909;53.590;10.054;2023-05-27T00:43:39;14.50;55.80
21495;DHT22;10909;53.590;10.054;2023-05-27T00:46:05;14.50;55.80
21495;DHT22;10909;53.590;10.054;2023-05-27T00:48:31;14.40;55.70
21495;DHT22;10909;53.590;10.054;2023-05-27T00:50:56;14.40;56.00
21495;DHT22;10909;53.590;10.054;2023-05-27T00:53:23;14.40;56.00
21495;DHT22;10909;53.590;10.054;2023-05-27T00:55:53;14.40;56.20
21495;DHT22;10909;53.590;10.054;2023-05-27T00:58:20;14.30;56.10
21495;DHT22;10909;53.590;10.054;2023-05-27T01:00:47;14.30;55.90
21495;DHT22;10909;53.590;10.054;2023-05-27T01:03:13;14.30;56.20
21495;DHT22;10909;53.590;10.054;2023-05-27T01:05:40;14.20;56.20
21495;DHT22;10909;53.590;10.054;2023-05-27T01:10:49;14.20;56.70
21495;DHT22;10909;53.590;10.054;2023-05-27T01:13:32;14.10;56.40
21495;DHT22;10909;53.590;10.054;2023-05-27T01:16:13;14.10;56.80
21495;DHT22;10909;53.590;10.054;2023-05-27T01:18:42;14.10;56.60
21495;DHT22;10909;53.590;10.054;2023-05-27T01:21:15;14.00;56.50
21495;DHT22;10909;53.590;10.054;2023-05-27T01:23:47;14.10;57.00
21495;DHT22;10909;53.590;10.054;2023-05-27T01:26:13;14.00;56.70
21495;DHT22;10909;53.590;10.054;2023-05-27T01:28:39;14.00;56.70
21495;DHT22;10909;53.590;10.054;2023-05-27T01:31:18;14.00;56.90
21495;DHT22;10909;53.590;10.054;2023-05-27T01:33:54;14.00;57.10
21495;DHT22;10909;53.590;10.054;2023-05-27T01:36:25;13.90;57.10
21495;DHT22;10909;53.590;10.054;2023-05-27T01:38:52;13.80;57.20
21495;DHT22;10909;53.590;10.054;2023-05-27T01:41:19;13.80;57.20
21495;DHT22;10909;53.590;10.054;2023-05-27T01:43:49;13.70;57.20
21495;DHT22;10909;53.590;10.054;2023-05-27T01:46:15;13.70;57.20
21495;DHT22;10909;53.590;10.054;2023-05-27T01:48:40;13.60;57.90
21495;DHT22;10909;53.590;10.054;2023-05-27T01:51:06;13.60;57.40
21495;DHT22;10909;53.590;10.054;2023-05-27T01:53:32;13.60;57.60
21495;DHT22;10909;53.590;10.054;2023-05-27T01:55:57;13.60;57.80
21495;DHT22;10909;53.590;10.054;2023-05-27T01:58:23;13.60;57.80
21495;DHT22;10909;53.590;10.054;2023-05-27T02:00:49;13.50;57.70
21495;DHT22;10909;53.590;10.054;2023-05-27T02:03:15;13.50;57.70
21495;DHT22;10909;53.590;10.054;2023-05-27T02:05:40;13.50;57.60
21495;DHT22;10909;53.590;10.054;2023-05-27T02:08:07;13.50;57.70
21495;DHT22;10909;53.590;10.054;2023-05-27T02:10:33;13.50;57.90
21495;DHT22;10909;53.590;10.054;2023-05-27T02:12:59;13.50;57.90
21495;DHT22;10909;53.590;10.054;2023-05-27T02:15:25;13.40;58.00
21495;DHT22;10909;53.590;10.054;2023-05-27T02:17:53;13.40;58.00
21495;DHT22;10909;53.590;10.054;2023-05-27T02:20:26;13.40;58.10
21495;DHT22;10909;53.590;10.054;2023-05-27T02:22:52;13.40;58.20
21495;DHT22;10909;53.590;10.054;2023-05-27T02:25:18;13.40;58.00
21495;DHT22;10909;53.590;10.054;2023-05-27T02:27:44;13.40;58.10
21495;DHT22;10909;53.590;10.054;2023-05-27T02:30:14;13.40;58.20
21495;DHT22;10909;53.590;10.054;2023-05-27T02:32:40;13.40;58.30
21495;DHT22;10909;53.590;10.054;2023-05-27T02:35:06;13.40;58.30
21495;DHT22;10909;53.590;10.054;2023-05-27T02:37:33;13.40;58.40
21495;DHT22;10909;53.590;10.054;2023-05-27T02:40:02;13.40;58.40
21495;DHT22;10909;53.590;10.054;2023-05-27T02:42:36;13.40;58.40
21495;DHT22;10909;53.590;10.054;2023-05-27T02:45:02;13.40;58.40
21495;DHT22;10909;53.590;10.054;2023-05-27T02:47:28;13.40;58.50
21495;DHT22;10909;53.590;10.054;2023-05-27T02:49:54;13.40;58.40
21495;DHT22;10909;53.590;10.054;2023-05-27T02:52:19;13.30;58.50
21495;DHT22;10909;53.590;10.054;2023-05-27T02:54:45;13.30;58.30
21495;DHT22;10909;53.590;10.054;2023-05-27T02:57:11;13.30;58.40
21495;DHT22;10909;53.590;10.054;2023-05-27T02:59:36;13.30;58.40
21495;DHT22;10909;53.590;10.054;2023-05-27T03:02:02;13.30;58.50
21495;DHT22;10909;53.590;10.054;2023-05-27T03:04:31;13.30;58.50
21495;DHT22;10909;53.590;10.054;2023-05-27T03:06:56;13.30;58.50
21495;DHT22;10909;53.590;10.054;2023-05-27T03:09:22;13.30;58.30
21495;DHT22;10909;53.590;10.054;2023-05-27T03:11:48;13.30;58.50
21495;DHT22;10909;53.590;10.054;2023-05-27T03:14:13;13.30;58.50
21495;DHT22;10909;53.590;10.054;2023-05-27T03:16:39;13.20;58.40
21495;DHT22;10909;53.590;10.054;2023-05-27T03:19:05;13.20;58.60
21495;DHT22;10909;53.590;10.054;2023-05-27T03:21:30;13.20;58.60
21495;DHT22;10909;53.590;10.054;2023-05-27T03:23:57;13.20;58.60
21495;DHT22;10909;53.590;10.054;2023-05-27T03:26:22;13.20;58.70
21495;DHT22;10909;53.590;10.054;2023-05-27T03:28:48;13.20;58.70
21495;DHT22;10909;53.590;10.054;2023-05-27T03:31:14;13.20;58.90
21495;DHT22;10909;53.590;10.054;2023-05-27T03:33:39;13.10;58.60
21495;DHT22;10909;53.590;10.054;2023-05-27T03:36:05;13.10;58.70
21495;DHT22;10909;53.590;10.054;2023-05-27T03:38:32;13.10;58.70
21495;DHT22;10909;53.590;10.054;2023-05-27T03:41:00;13.10;59.00
21495;DHT22;10909;53.590;10.054;2023-05-27T03:43:27;13.10;59.20
21495;DHT22;10909;53.590;10.054;2023-05-27T03:45:52;13.00;59.00
21495;DHT22;10909;53.590;10.054;2023-05-27T03:48:18;13.00;59.10
21495;DHT22;10909;53.590;10.054;2023-05-27T03:50:44;13.00;59.10
21495;DHT22;10909;53.590;10.054;2023-05-27T03:53:10;13.00;59.20
21495;DHT22;10909;53.590;10.054;2023-05-27T03:55:35;13.00;59.20
21495;DHT22;10909;53.590;10.054;2023-05-27T03:58:01;13.00;59.30
21495;DHT22;10909;53.590;10.054;2023-05-27T04:00:27;13.00;59.30
21495;DHT22;10909;53.590;10.054;2023-05-27T04:02:53;13.00;59.50
21495;DHT22;10909;53.590;10.054;2023-05-27T04:05:22;13.00;59.50
21495;DHT22;10909;53.590;10.054;2023-05-27T04:07:52;13.00;59.50
21495;DHT22;10909;53.590;10.054;2023-05-27T04:10:18;13.00;59.60
21495;DHT22;10909;53.590;10.054;2023-05-27T04:12:46;13.00;59.50
21495;DHT22;10909;53.590;10.054;2023-05-27T04:15:12;13.00;59.50
21495;DHT22;10909;53.590;10.054;2023-05-27T04:17:37;13.10;59.70
21495;DHT22;10909;53.590;10.054;2023-05-27T04:20:04;13.10;59.70
21495;DHT22;10909;53.590;10.054;2023-05-27T04:22:45;13.10;59.70
21495;DHT22;10909;53.590;10.054;2023-05-27T04:25:11;13.10;59.80
21495;DHT22;10909;53.590;10.054;2023-05-27T04:27:36;13.10;59.60
21495;DHT22;10909;53.590;10.054;2023-05-27T04:30:04;13.20;59.70
21495;DHT22;10909;53.590;10.054;2023-05-27T04:32:30;13.20;59.80
21495;DHT22;10909;53.590;10.054;2023-05-27T04:35:05;13.20;60.20
21495;DHT22;10909;53.590;10.054;2023-05-27T04:37:33;13.30;59.80
21495;DHT22;10909;53.590;10.054;2023-05-27T04:39:58;13.30;59.70
21495;DHT22;10909;53.590;10.054;2023-05-27T04:42:24;13.30;59.70
21495;DHT22;10909;53.590;10.054;2023-05-27T04:44:50;13.30;59.80
21495;DHT22;10909;53.590;10.054;2023-05-27T04:47:16;13.30;59.80
21495;DHT22;10909;53.590;10.054;2023-05-27T04:49:42;13.40;59.70
21495;DHT22;10909;53.590;10.054;2023-05-27T04:52:09;13.40;59.70
21495;DHT22;10909;53.590;10.054;2023-05-27T04:54:35;13.40;59.80
21495;DHT22;10909;53.590;10.054;2023-05-27T04:57:01;13.50;59.80
21495;DHT22;10909;53.590;10.054;2023-05-27T04:59:27;13.50;59.90
21495;DHT22;10909;53.590;10.054;2023-05-27T05:02:12;13.50;59.80
21495;DHT22;10909;53.590;10.054;2023-05-27T05:04:47;13.50;59.70
21495;DHT22;10909;53.590;10.054;2023-05-27T05:07:13;13.60;59.80
21495;DHT22;10909;53.590;10.054;2023-05-27T05:09:39;13.60;59.90
21495;DHT22;10909;53.590;10.054;2023-05-27T05:12:05;13.60;59.80
21495;DHT22;10909;53.590;10.054;2023-05-27T05:14:31;13.60;59.90
21495;DHT22;10909;53.590;10.054;2023-05-27T05:16:57;13.70;60.00
21495;DHT22;10909;53.590;10.054;2023-05-27T05:19:23;13.70;60.00
21495;DHT22;10909;53.590;10.054;2023-05-27T05:21:52;13.70;60.00
21495;DHT22;10909;53.590;10.054;2023-05-27T05:24:19;13.80;60.10
21495;DHT22;10909;53.590;10.054;2023-05-27T05:26:45;13.80;60.10
21495;DHT22;10909;53.590;10.054;2023-05-27T05:29:11;13.80;60.20
21495;DHT22;10909;53.590;10.054;2023-05-27T05:31:37;13.80;60.20
21495;DHT22;10909;53.590;10.054;2023-05-27T05:34:02;13.90;60.20
21495;DHT22;10909;53.590;10.054;2023-05-27T05:36:28;13.90;60.20
21495;DHT22;10909;53.590;10.054;2023-05-27T05:38:55;13.90;60.30
21495;DHT22;10909;53.590;10.054;2023-05-27T05:41:23;14.00;60.50
21495;DHT22;10909;53.590;10.054;2023-05-27T05:43:49;14.00;60.40
21495;DHT22;10909;53.590;10.054;2023-05-27T05:46:15;14.10;60.50
21495;DHT22;10909;53.590;10.054;2023-05-27T05:48:40;14.10;60.40
21495;DHT22;10909;53.590;10.054;2023-05-27T05:51:06;14.20;60.50
21495;DHT22;10909;53.590;10.054;2023-05-27T05:53:32;14.20;60.60
21495;DHT22;10909;53.590;10.054;2023-05-27T05:55:57;14.30;60.60
21495;DHT22;10909;53.590;10.054;2023-05-27T05:58:23;14.30;60.50
21495;DHT22;10909;53.590;10.054;2023-05-27T06:00:49;14.30;60.60
21495;DHT22;10909;53.590;10.054;2023-05-27T06:03:14;14.40;60.70
21495;DHT22;10909;53.590;10.054;2023-05-27T06:05:40;14.50;60.80
21495;DHT22;10909;53.590;10.054;2023-05-27T06:08:06;14.50;60.80
21495;DHT22;10909;53.590;10.054;2023-05-27T06:10:33;14.60;60.90
21495;DHT22;10909;53.590;10.054;2023-05-27T06:12:58;14.70;60.90
21495;DHT22;10909;53.590;10.054;2023-05-27T06:15:24;14.70;60.80
21495;DHT22;10909;53.590;10.054;2023-05-27T06:17:50;14.80;60.90
21495;DHT22;10909;53.590;10.054;2023-05-27T06:20:16;14.80;60.70
21495;DHT22;10909;53.590;10.054;2023-05-27T06:22:42;14.90;60.70
21495;DHT22;10909;53.590;10.054;2023-05-27T06:25:08;15.00;60.70
21495;DHT22;10909;53.590;10.054;2023-05-27T06:27:35;15.00;60.70
21495;DHT22;10909;53.590;10.054;2023-05-27T06:30:00;15.10;60.80
21495;DHT22;10909;53.590;10.054;2023-05-27T06:32:28;15.20;60.80
21495;DHT22;10909;53.590;10.054;2023-05-27T06:34:54;15.20;60.80
21495;DHT22;10909;53.590;10.054;2023-05-27T06:37:19;15.30;60.70
21495;DHT22;10909;53.590;10.054;2023-05-27T06:39:46;15.30;60.50
21495;DHT22;10909;53.590;10.054;2023-05-27T06:42:12;15.40;60.60
21495;DHT22;10909;53.590;10.054;2023-05-27T06:44:38;15.50;60.50
21495;DHT22;10909;53.590;10.054;2023-05-27T06:47:04;15.50;60.50
21495;DHT22;10909;53.590;10.054;2023-05-27T06:49:30;15.60;60.50
21495;DHT22;10909;53.590;10.054;2023-05-27T06:51:56;15.70;60.50
21495;DHT22;10909;53.590;10.054;2023-05-27T06:54:21;15.80;60.50
21495;DHT22;10909;53.590;10.054;2023-05-27T06:56:47;15.90;60.50
21495;DHT22;10909;53.590;10.054;2023-05-27T06:59:14;15.90;60.40
21495;DHT22;10909;53.590;10.054;2023-05-27T07:01:40;16.00;60.30
21495;DHT22;10909;53.590;10.054;2023-05-27T07:04:05;16.10;60.20
21495;DHT22;10909;53.590;10.054;2023-05-27T07:06:31;16.20;60.20
21495;DHT22;10909;53.590;10.054;2023-05-27T07:08:57;16.20;60.00
21495;DHT22;10909;53.590;10.054;2023-05-27T07:11:23;16.30;60.00
21495;DHT22;10909;53.590;10.054;2023-05-27T07:13:49;16.40;59.90
21495;DHT22;10909;53.590;10.054;2023-05-27T07:16:15;16.50;59.80
21495;DHT22;10909;53.590;10.054;2023-05-27T07:18:41;16.60;59.70
21495;DHT22;10909;53.590;10.054;2023-05-27T07:21:08;16.60;59.60
21495;DHT22;10909;53.590;10.054;2023-05-27T07:23:34;16.70;59.60
21495;DHT22;10909;53.590;10.054;2023-05-27T07:26:00;16.80;59.50
21495;DHT22;10909;53.590;10.054;2023-05-27T07:28:28;16.80;59.40
21495;DHT22;10909;53.590;10.054;2023-05-27T07:30:54;16.90;59.40
21495;DHT22;10909;53.590;10.054;2023-05-27T07:33:20;16.90;59.30
21495;DHT22;10909;53.590;10.054;2023-05-27T07:35:46;17.00;59.20
21495;DHT22;10909;53.590;10.054;2023-05-27T07:38:12;17.10;59.20
21495;DHT22;10909;53.590;10.054;2023-05-27T07:40:37;17.10;59.10
21495;DHT22;10909;53.590;10.054;2023-05-27T07:43:03;17.20;58.90
21495;DHT22;10909;53.590;10.054;2023-05-27T07:45:29;17.30;58.90
21495;DHT22;10909;53.590;10.054;2023-05-27T07:47:56;17.30;58.80
21495;DHT22;10909;53.590;10.054;2023-05-27T07:50:21;17.40;58.80
21495;DHT22;10909;53.590;10.054;2023-05-27T07:52:47;17.40;58.60
21495;DHT22;10909;53.590;10.054;2023-05-27T07:55:13;17.50;58.60
21495;DHT22;10909;53.590;10.054;2023-05-27T07:57:39;17.60;58.40
21495;DHT22;10909;53.590;10.054;2023-05-27T08:00:19;17.60;58.40
21495;DHT22;10909;53.590;10.054;2023-05-27T08:02:45;17.70;58.30
21495;DHT22;10909;53.590;10.054;2023-05-27T08:05:11;17.80;58.30
21495;DHT22;10909;53.590;10.054;2023-05-27T08:07:36;17.80;58.00
21495;DHT22;10909;53.590;10.054;2023-05-27T08:10:09;17.90;57.80
21495;DHT22;10909;53.590;10.054;2023-05-27T08:12:35;18.00;57.80
21495;DHT22;10909;53.590;10.054;2023-05-27T08:15:04;18.00;57.70
21495;DHT22;10909;53.590;10.054;2023-05-27T08:17:30;18.10;57.60
21495;DHT22;10909;53.590;10.054;2023-05-27T08:19:55;18.20;57.50
21495;DHT22;10909;53.590;10.054;2023-05-27T08:22:21;18.20;57.30
21495;DHT22;10909;53.590;10.054;2023-05-27T08:24:47;18.30;57.20
21495;DHT22;10909;53.590;10.054;2023-05-27T08:27:16;18.40;57.10
21495;DHT22;10909;53.590;10.054;2023-05-27T08:29:43;18.50;57.10
21495;DHT22;10909;53.590;10.054;2023-05-27T08:32:09;18.50;57.00
21495;DHT22;10909;53.590;10.054;2023-05-27T08:34:35;18.60;56.90
21495;DHT22;10909;53.590;10.054;2023-05-27T08:37:02;18.70;57.50
21495;DHT22;10909;53.590;10.054;2023-05-27T08:39:29;18.80;56.80
21495;DHT22;10909;53.590;10.054;2023-05-27T08:41:55;18.90;56.60
21495;DHT22;10909;53.590;10.054;2023-05-27T08:44:24;19.00;56.60
21495;DHT22;10909;53.590;10.054;2023-05-27T08:46:51;19.10;56.60
21495;DHT22;10909;53.590;10.054;2023-05-27T08:49:17;19.20;56.50
21495;DHT22;10909;53.590;10.054;2023-05-27T08:51:45;19.30;56.40
21495;DHT22;10909;53.590;10.054;2023-05-27T08:54:12;19.30;56.20
21495;DHT22;10909;53.590;10.054;2023-05-27T08:56:39;19.50;56.10
21495;DHT22;10909;53.590;10.054;2023-05-27T08:59:05;19.60;55.40
21495;DHT22;10909;53.590;10.054;2023-05-27T09:01:32;19.60;55.20
21495;DHT22;10909;53.590;10.054;2023-05-27T09:03:59;19.60;54.80
21495;DHT22;10909;53.590;10.054;2023-05-27T09:06:26;19.70;54.40
21495;DHT22;10909;53.590;10.054;2023-05-27T09:08:52;19.70;54.40
21495;DHT22;10909;53.590;10.054;2023-05-27T09:11:25;19.70;53.90
21495;DHT22;10909;53.590;10.054;2023-05-27T09:13:54;19.70;53.70
21495;DHT22;10909;53.590;10.054;2023-05-27T09:16:21;19.60;53.80
21495;DHT22;10909;53.590;10.054;2023-05-27T09:18:48;19.60;53.90
21495;DHT22;10909;53.590;10.054;2023-05-27T09:21:14;19.60;53.90
21495;DHT22;10909;53.590;10.054;2023-05-27T09:23:40;19.60;53.90
21495;DHT22;10909;53.590;10.054;2023-05-27T09:26:10;19.60;53.90
21495;DHT22;10909;53.590;10.054;2023-05-27T09:28:37;19.70;53.70
21495;DHT22;10909;53.590;10.054;2023-05-27T09:31:06;19.70;53.70
21495;DHT22;10909;53.590;10.054;2023-05-27T09:33:34;19.80;53.70
21495;DHT22;10909;53.590;10.054;2023-05-27T09:36:01;19.80;53.60
21495;DHT22;10909;53.590;10.054;2023-05-27T09:38:32;19.90;53.60
21495;DHT22;10909;53.590;10.054;2023-05-27T09:40:59;20.00;53.50
21495;DHT22;10909;53.590;10.054;2023-05-27T09:43:28;20.10;53.30
21495;DHT22;10909;53.590;10.054;2023-05-27T09:46:00;20.20;53.30
21495;DHT22;10909;53.590;10.054;2023-05-27T09:48:29;20.40;53.10
21495;DHT22;10909;53.590;10.054;2023-05-27T09:51:03;20.50;52.90
21495;DHT22;10909;53.590;10.054;2023-05-27T09:53:29;20.60;52.40
21495;DHT22;10909;53.590;10.054;2023-05-27T09:55:56;20.70;52.10
21495;DHT22;10909;53.590;10.054;2023-05-27T09:58:24;20.80;52.10
21495;DHT22;10909;53.590;10.054;2023-05-27T10:00:50;20.90;51.70
21495;DHT22;10909;53.590;10.054;2023-05-27T10:03:17;21.00;51.70
21495;DHT22;10909;53.590;10.054;2023-05-27T10:05:46;21.00;51.70
21495;DHT22;10909;53.590;10.054;2023-05-27T10:08:14;21.10;51.40
21495;DHT22;10909;53.590;10.054;2023-05-27T10:10:40;21.20;51.50
21495;DHT22;10909;53.590;10.054;2023-05-27T10:13:07;21.20;51.40
21495;DHT22;10909;53.590;10.054;2023-05-27T10:15:36;21.30;51.10
21495;DHT22;10909;53.590;10.054;2023-05-27T10:18:06;21.30;50.20
21495;DHT22;10909;53.590;10.054;2023-05-27T10:20:42;21.40;50.50
21495;DHT22;10909;53.590;10.054;2023-05-27T10:23:19;21.30;50.10
21495;DHT22;10909;53.590;10.054;2023-05-27T10:25:55;21.40;50.10
21495;DHT22;10909;53.590;10.054;2023-05-27T10:28:32;21.40;50.20
21495;DHT22;10909;53.590;10.054;2023-05-27T10:33:36;21.50;49.80
21495;DHT22;10909;53.590;10.054;2023-05-27T10:36:11;21.50;50.70
21495;DHT22;10909;53.590;10.054;2023-05-27T10:38:39;21.60;49.70
21495;DHT22;10909;53.590;10.054;2023-05-27T10:41:06;21.70;49.90
21495;DHT22;10909;53.590;10.054;2023-05-27T10:43:34;21.70;49.70
21495;DHT22;10909;53.590;10.054;2023-05-27T10:46:12;21.70;49.50
21495;DHT22;10909;53.590;10.054;2023-05-27T10:48:38;21.80;49.00
21495;DHT22;10909;53.590;10.054;2023-05-27T10:51:05;21.80;49.10
21495;DHT22;10909;53.590;10.054;2023-05-27T10:53:35;21.80;48.50
21495;DHT22;10909;53.590;10.054;2023-05-27T10:56:01;21.70;48.40
21495;DHT22;10909;53.590;10.054;2023-05-27T10:58:37;21.70;48.60
21495;DHT22;10909;53.590;10.054;2023-05-27T11:01:11;21.80;48.50
21495;DHT22;10909;53.590;10.054;2023-05-27T11:03:45;21.80;48.60
21495;DHT22;10909;53.590;10.054;2023-05-27T11:06:13;21.80;48.20
21495;DHT22;10909;53.590;10.054;2023-05-27T11:08:40;21.80;48.40
21495;DHT22;10909;53.590;10.054;2023-05-27T11:11:09;21.90;48.40
21495;DHT22;10909;53.590;10.054;2023-05-27T11:13:36;21.90;48.20
21495;DHT22;10909;53.590;10.054;2023-05-27T11:16:05;22.00;48.30
21495;DHT22;10909;53.590;10.054;2023-05-27T11:18:38;22.10;48.30
21495;DHT22;10909;53.590;10.054;2023-05-27T11:21:06;22.20;47.90
21495;DHT22;10909;53.590;10.054;2023-05-27T11:23:39;22.30;48.00
21495;DHT22;10909;53.590;10.054;2023-05-27T11:31:13;22.50;47.00
21495;DHT22;10909;53.590;10.054;2023-05-27T11:33:44;22.60;47.30
21495;DHT22;10909;53.590;10.054;2023-05-27T11:36:14;22.70;47.10
21495;DHT22;10909;53.590;10.054;2023-05-27T11:38:53;22.90;47.20
21495;DHT22;10909;53.590;10.054;2023-05-27T11:41:20;23.00;46.30
21495;DHT22;10909;53.590;10.054;2023-05-27T11:43:57;23.10;45.80
21495;DHT22;10909;53.590;10.054;2023-05-27T11:46:24;23.20;45.60
21495;DHT22;10909;53.590;10.054;2023-05-27T11:48:58;23.30;45.70
21495;DHT22;10909;53.590;10.054;2023-05-27T11:51:28;23.40;45.40
21495;DHT22;10909;53.590;10.054;2023-05-27T11:53:55;23.50;44.70
21495;DHT22;10909;53.590;10.054;2023-05-27T11:56:26;23.60;44.80
21495;DHT22;10909;53.590;10.054;2023-05-27T11:58:58;23.70;44.40
21495;DHT22;10909;53.590;10.054;2023-05-27T12:01:24;23.80;44.50
21495;DHT22;10909;53.590;10.054;2023-05-27T12:03:51;23.80;43.60
21495;DHT22;10909;53.590;10.054;2023-05-27T12:06:16;23.90;43.70
21495;DHT22;10909;53.590;10.054;2023-05-27T12:08:43;24.00;43.80
21495;DHT22;10909;53.590;10.054;2023-05-27T12:11:10;24.00;42.90
21495;DHT22;10909;53.590;10.054;2023-05-27T12:13:36;24.10;43.40
21495;DHT22;10909;53.590;10.054;2023-05-27T12:16:02;24.20;43.30
21495;DHT22;10909;53.590;10.054;2023-05-27T12:18:31;24.30;43.30
21495;DHT22;10909;53.590;10.054;2023-05-27T12:20:57;24.40;43.20
21495;DHT22;10909;53.590;10.054;2023-05-27T12:23:23;24.50;43.20
21495;DHT22;10909;53.590;10.054;2023-05-27T12:25:48;24.70;43.50
21495;DHT22;10909;53.590;10.054;2023-05-27T12:28:14;25.00;43.60
21495;DHT22;10909;53.590;10.054;2023-05-27T12:30:40;25.30;43.50
21495;DHT22;10909;53.590;10.054;2023-05-27T12:33:06;25.50;42.80
21495;DHT22;10909;53.590;10.054;2023-05-27T12:35:32;25.70;42.20
21495;DHT22;10909;53.590;10.054;2023-05-27T12:37:59;25.80;41.90
21495;DHT22;10909;53.590;10.054;2023-05-27T12:40:25;25.90;41.90
21495;DHT22;10909;53.590;10.054;2023-05-27T12:42:51;26.10;41.90
21495;DHT22;10909;53.590;10.054;2023-05-27T12:45:17;26.40;41.90
21495;DHT22;10909;53.590;10.054;2023-05-27T12:47:43;26.70;41.60
21495;DHT22;10909;53.590;10.054;2023-05-27T12:50:09;26.90;41.00
21495;DHT22;10909;53.590;10.054;2023-05-27T12:52:35;27.10;40.10
21495;DHT22;10909;53.590;10.054;2023-05-27T12:55:04;27.10;39.90
21495;DHT22;10909;53.590;10.054;2023-05-27T12:57:30;27.30;39.60
21495;DHT22;10909;53.590;10.054;2023-05-27T12:59:56;27.50;39.90
21495;DHT22;10909;53.590;10.054;2023-05-27T13:02:22;27.70;39.40
21495;DHT22;10909;53.590;10.054;2023-05-27T13:04:47;27.90;39.40
21495;DHT22;10909;53.590;10.054;2023-05-27T13:07:13;28.00;39.00
21495;DHT22;10909;53.590;10.054;2023-05-27T13:09:41;28.10;38.20
21495;DHT22;10909;53.590;10.054;2023-05-27T13:12:07;28.10;37.80
21495;DHT22;10909;53.590;10.054;2023-05-27T13:14:33;28.10;37.80
21495;DHT22;10909;53.590;10.054;2023-05-27T13:16:59;28.10;37.10
21495;DHT22;10909;53.590;10.054;2023-05-27T13:19:24;28.10;37.20
21495;DHT22;10909;53.590;10.054;2023-05-27T13:21:50;28.20;37.80
21495;DHT22;10909;53.590;10.054;2023-05-27T13:24:17;28.40;37.70
21495;DHT22;10909;53.590;10.054;2023-05-27T13:26:45;28.70;37.40
21495;DHT22;10909;53.590;10.054;2023-05-27T13:29:11;29.00;37.40
21495;DHT22;10909;53.590;10.054;2023-05-27T13:31:37;29.40;37.60
21495;DHT22;10909;53.590;10.054;2023-05-27T13:34:02;29.80;37.10
21495;DHT22;10909;53.590;10.054;2023-05-27T13:36:28;30.20;36.90
21495;DHT22;10909;53.590;10.054;2023-05-27T13:38:55;30.60;36.30
21495;DHT22;10909;53.590;10.054;2023-05-27T13:41:20;30.80;35.30
21495;DHT22;10909;53.590;10.054;2023-05-27T13:43:46;31.00;35.10
21495;DHT22;10909;53.590;10.054;2023-05-27T13:46:12;31.20;34.90
21495;DHT22;10909;53.590;10.054;2023-05-27T13:48:37;31.40;34.60
21495;DHT22;10909;53.590;10.054;2023-05-27T13:51:03;31.70;34.20
21495;DHT22;10909;53.590;10.054;2023-05-27T13:53:29;31.90;33.60
21495;DHT22;10909;53.590;10.054;2023-05-27T13:55:54;32.00;33.70
21495;DHT22;10909;53.590;10.054;2023-05-27T13:58:20;32.20;33.90
21495;DHT22;10909;53.590;10.054;2023-05-27T14:00:46;32.40;33.80
21495;DHT22;10909;53.590;10.054;2023-05-27T14:03:12;32.80;33.10
21495;DHT22;10909;53.590;10.054;2023-05-27T14:05:37;33.10;32.80
21495;DHT22;10909;53.590;10.054;2023-05-27T14:08:03;33.40;32.40
21495;DHT22;10909;53.590;10.054;2023-05-27T14:10:32;33.70;31.80
21495;DHT22;10909;53.590;10.054;2023-05-27T14:12:58;34.00;31.70
21495;DHT22;10909;53.590;10.054;2023-05-27T14:15:24;34.20;31.20
21495;DHT22;10909;53.590;10.054;2023-05-27T14:17:57;34.40;30.70
21495;DHT22;10909;53.590;10.054;2023-05-27T14:20:26;34.70;30.40
21495;DHT22;10909;53.590;10.054;2023-05-27T14:22:51;35.00;30.40
21495;DHT22;10909;53.590;10.054;2023-05-27T14:25:17;35.20;30.10
21495;DHT22;10909;53.590;10.054;2023-05-27T14:27:45;35.40;29.60
21495;DHT22;10909;53.590;10.054;2023-05-27T14:30:10;35.60;29.50
21495;DHT22;10909;53.590;10.054;2023-05-27T14:32:36;35.70;28.90
21495;DHT22;10909;53.590;10.054;2023-05-27T14:35:02;35.90;28.80
21495;DHT22;10909;53.590;10.054;2023-05-27T14:37:28;36.00;28.80
21495;DHT22;10909;53.590;10.054;2023-05-27T14:39:53;36.10;27.90
21495;DHT22;10909;53.590;10.054;2023-05-27T14:42:19;36.10;27.60
21495;DHT22;10909;53.590;10.054;2023-05-27T14:44:45;36.00;27.60
21495;DHT22;10909;53.590;10.054;2023-05-27T14:47:11;35.90;28.00
21495;DHT22;10909;53.590;10.054;2023-05-27T14:49:38;36.00;27.90
21495;DHT22;10909;53.590;10.054;2023-05-27T14:52:03;36.00;27.70
21495;DHT22;10909;53.590;10.054;2023-05-27T14:54:29;36.10;27.50
21495;DHT22;10909;53.590;10.054;2023-05-27T14:56:55;36.10;27.20
21495;DHT22;10909;53.590;10.054;2023-05-27T14:59:21;36.10;27.40
21495;DHT22;10909;53.590;10.054;2023-05-27T15:01:48;36.00;27.30
21495;DHT22;10909;53.590;10.054;2023-05-27T15:04:13;36.00;26.90
21495;DHT22;10909;53.590;10.054;2023-05-27T15:06:39;36.00;27.10
21495;DHT22;10909;53.590;10.054;2023-05-27T15:09:05;35.90;27.00
21495;DHT22;10909;53.590;10.054;2023-05-27T15:11:37;35.90;26.90
21495;DHT22;10909;53.590;10.054;2023-05-27T15:14:03;35.90;27.10
21495;DHT22;10909;53.590;10.054;2023-05-27T15:16:31;35.90;27.30
21495;DHT22;10909;53.590;10.054;2023-05-27T15:18:57;35.90;27.30
21495;DHT22;10909;53.590;10.054;2023-05-27T15:21:25;36.00;26.90
21495;DHT22;10909;53.590;10.054;2023-05-27T15:23:51;36.10;26.70
21495;DHT22;10909;53.590;10.054;2023-05-27T15:26:16;36.10;26.70